Time;durP1;ratioP1;P1;durP2;ratioP2;P2;SDS_P1;SDS_P2;PMS_P1;PMS_P2;Temp;Humidity;BMP_temperature;BMP_pressure;BME280_temperature;BME280_humidity;BME280_pressure;Samples;Min_cycle;Max_cycle;Signal;HPM_P1;HPM_P2
2022/12/21 00:01:36;;;;;;;67.38;38.05;;;;;;;;;;5034525;28;20040;-69
2022/12/21 00:04:02;;;;;;;61.03;35.78;;;;;;;;;;5034475;28;20025;-69
2022/12/21 00:06:29;;;;;;;60.28;35.90;;;;;;;;;;5034627;28;20116;-69
2022/12/21 00:08:55;;;;;;;58.75;33.58;;;;;;;;;;5034524;28;20017;-69
2022/12/21 00:11:21;;;;;;;53.92;32.17;;;;;;;;;;5034264;28;20064;-69
2022/12/21 00:13:47;;;;;;;57.03;32.25;;;;;;;;;;5034263;28;20050;-69
2022/12/21 00:16:14;;;;;;;50.47;30.02;;;;;;;;;;5034334;28;20033;-69
2022/12/21 00:18:40;;;;;;;51.63;30.42;;;;;;;;;;5034302;28;20377;-69
2022/12/21 00:21:15;;;;;;;53.78;30.48;;;;;;;;;;5034355;28;20025;-69
2022/12/21 00:23:41;;;;;;;48.80;29.17;;;;;;;;;;5034020;28;20033;-69
2022/12/21 00:26:07;;;;;;;49.45;28.90;;;;;;;;;;5034163;28;20034;-69
2022/12/21 00:28:32;;;;;;;50.50;29.02;;;;;;;;;;5034101;28;20037;-69
2022/12/21 00:31:05;;;;;;;50.30;29.48;;;;;;;;;;5034020;28;20087;-69
2022/12/21 00:33:32;;;;;;;51.85;29.45;;;;;;;;;;5016138;28;20049;-70
2022/12/21 00:35:58;;;;;;;53.40;29.65;;;;;;;;;;5034150;28;20076;-71
2022/12/21 00:38:24;;;;;;;49.47;28.55;;;;;;;;;;5041820;28;20381;-71
2022/12/21 00:40:57;;;;;;;50.00;30.02;;;;;;;;;;5053834;28;20052;-71
2022/12/21 00:43:29;;;;;;;51.35;28.95;;;;;;;;;;5053868;28;20040;-73
2022/12/21 00:45:55;;;;;;;50.25;29.90;;;;;;;;;;5035964;28;20036;-70
2022/12/21 00:48:20;;;;;;;43.30;25.88;;;;;;;;;;5053763;28;20040;-70
2022/12/21 00:50:47;;;;;;;45.88;26.48;;;;;;;;;;5053502;28;20346;-70
2022/12/21 00:53:14;;;;;;;45.85;26.13;;;;;;;;;;5035606;28;20033;-70
2022/12/21 00:55:39;;;;;;;40.17;25.83;;;;;;;;;;5053664;28;20096;-70
2022/12/21 00:58:04;;;;;;;44.63;26.70;;;;;;;;;;5036192;28;20104;-70
2022/12/21 01:00:30;;;;;;;44.03;25.95;;;;;;;;;;5035615;28;20041;-70
2022/12/21 01:02:56;;;;;;;43.30;26.55;;;;;;;;;;5053553;28;20112;-70
2022/12/21 01:05:23;;;;;;;42.08;26.08;;;;;;;;;;5035588;28;20481;-70
2022/12/21 01:07:48;;;;;;;47.42;27.20;;;;;;;;;;5053550;28;20052;-71
2022/12/21 01:10:14;;;;;;;46.15;27.30;;;;;;;;;;5053497;28;20075;-71
2022/12/21 01:12:40;;;;;;;44.97;27.33;;;;;;;;;;5053835;28;20469;-71
2022/12/21 01:15:05;;;;;;;47.65;27.20;;;;;;;;;;5039630;28;20094;-71
2022/12/21 01:17:32;;;;;;;44.72;26.05;;;;;;;;;;5057532;28;20027;-71
2022/12/21 01:19:57;;;;;;;47.70;27.17;;;;;;;;;;5039758;28;20082;-70
2022/12/21 01:22:24;;;;;;;45.10;27.92;;;;;;;;;;5057711;28;20102;-70
2022/12/21 01:24:49;;;;;;;43.05;26.33;;;;;;;;;;5039438;28;20133;-71
2022/12/21 01:27:15;;;;;;;43.85;27.38;;;;;;;;;;5057362;28;20029;-71
2022/12/21 01:29:40;;;;;;;45.38;27.45;;;;;;;;;;5057393;28;20021;-70
2022/12/21 01:32:05;;;;;;;43.38;26.05;;;;;;;;;;5057374;28;20469;-71
2022/12/21 01:34:32;;;;;;;42.72;26.33;;;;;;;;;;5056887;28;20396;-71
2022/12/21 01:36:58;;;;;;;48.42;27.35;;;;;;;;;;5057095;28;20029;-70
2022/12/21 01:39:23;;;;;;;50.47;27.67;;;;;;;;;;5057246;28;20453;-70
2022/12/21 01:41:48;;;;;;;45.67;27.80;;;;;;;;;;5057155;28;20447;-69
2022/12/21 01:44:33;;;;;;;48.30;26.95;;;;;;;;;;5039214;28;20040;-69
2022/12/21 01:46:58;;;;;;;45.85;27.27;;;;;;;;;;5057076;28;20037;-70
2022/12/21 01:49:30;;;;;;;46.67;27.85;;;;;;;;;;5056930;28;20096;-70
2022/12/21 01:52:05;;;;;;;45.92;28.75;;;;;;;;;;5056974;28;20032;-70
2022/12/21 01:54:37;;;;;;;49.70;29.25;;;;;;;;;;5057034;28;20032;-70
2022/12/21 01:57:04;;;;;;;49.70;28.27;;;;;;;;;;5056975;28;20033;-70
2022/12/21 01:59:31;;;;;;;51.55;29.67;;;;;;;;;;5039249;28;20163;-70
2022/12/21 02:01:58;;;;;;;45.97;27.10;;;;;;;;;;5038840;28;20032;-70
2022/12/21 02:04:27;;;;;;;48.38;29.23;;;;;;;;;;5038599;28;20028;-70
2022/12/21 02:06:57;;;;;;;49.10;29.38;;;;;;;;;;5056493;28;20381;-70
2022/12/21 02:09:24;;;;;;;45.45;27.02;;;;;;;;;;5038727;28;20036;-70
2022/12/21 02:11:51;;;;;;;42.55;26.83;;;;;;;;;;5038628;28;20091;-70
2022/12/21 02:14:16;;;;;;;43.88;26.88;;;;;;;;;;5056416;28;20072;-70
2022/12/21 02:16:57;;;;;;;44.08;26.27;;;;;;;;;;5042989;28;20450;-70
2022/12/21 02:19:26;;;;;;;42.63;24.65;;;;;;;;;;5035283;28;20531;-70
2022/12/21 02:22:06;;;;;;;42.42;25.55;;;;;;;;;;5036386;28;20026;-71
2022/12/21 02:24:46;;;;;;;46.13;26.50;;;;;;;;;;5033742;28;20061;-71
2022/12/21 02:27:15;;;;;;;50.88;27.92;;;;;;;;;;5036334;28;20400;-71
2022/12/21 02:29:59;;;;;;;43.72;25.98;;;;;;;;;;5036469;28;20029;-71
2022/12/21 02:32:36;;;;;;;47.28;27.15;;;;;;;;;;5036293;28;20056;-71
2022/12/21 02:35:15;;;;;;;48.25;26.58;;;;;;;;;;5035035;28;20033;-69
2022/12/21 02:38:00;;;;;;;50.08;28.48;;;;;;;;;;5035111;28;20414;-70
2022/12/21 02:40:37;;;;;;;48.38;26.63;;;;;;;;;;5034655;28;20124;-69
2022/12/21 02:46:21;;;;;;;51.38;26.88;;;;;;;;;;5034041;28;20045;-69
2022/12/21 02:48:52;;;;;;;45.65;25.98;;;;;;;;;;5036004;28;20040;-69
2022/12/21 02:51:25;;;;;;;49.47;29.17;;;;;;;;;;5034638;28;20065;-69
2022/12/21 02:53:51;;;;;;;49.35;28.65;;;;;;;;;;5034434;28;20032;-69
2022/12/21 02:56:17;;;;;;;48.38;28.48;;;;;;;;;;5034327;28;20029;-70
2022/12/21 02:58:45;;;;;;;46.58;27.63;;;;;;;;;;5034777;28;20087;-69
2022/12/21 03:01:24;;;;;;;51.25;28.70;;;;;;;;;;5034443;28;20037;-69
2022/12/21 03:03:50;;;;;;;48.25;28.08;;;;;;;;;;5034375;28;20030;-69
2022/12/21 03:06:35;;;;;;;50.33;28.02;;;;;;;;;;5034285;28;20028;-69
2022/12/21 03:09:01;;;;;;;46.50;26.98;;;;;;;;;;5034446;28;20040;-69
2022/12/21 03:11:37;;;;;;;46.05;26.38;;;;;;;;;;5034156;28;20036;-70
2022/12/21 03:14:11;;;;;;;43.42;25.65;;;;;;;;;;5035205;28;20048;-70
2022/12/21 03:16:48;;;;;;;51.03;28.23;;;;;;;;;;5034228;28;20029;-70
2022/12/21 03:19:16;;;;;;;44.00;26.20;;;;;;;;;;5033918;28;20044;-70
2022/12/21 03:21:42;;;;;;;47.17;26.30;;;;;;;;;;5034225;28;20485;-70
2022/12/21 03:24:16;;;;;;;45.95;26.92;;;;;;;;;;5034053;28;20045;-70
2022/12/21 03:26:46;;;;;;;46.35;27.15;;;;;;;;;;5035281;28;20025;-70
2022/12/21 03:29:14;;;;;;;50.33;28.42;;;;;;;;;;5035166;28;20113;-70
2022/12/21 03:31:42;;;;;;;47.60;27.00;;;;;;;;;;5033732;28;20493;-70
2022/12/21 03:34:10;;;;;;;49.63;26.98;;;;;;;;;;5034834;28;20071;-70
2022/12/21 03:36:48;;;;;;;47.45;25.00;;;;;;;;;;5034506;28;20480;-70
2022/12/21 03:39:15;;;;;;;48.45;26.33;;;;;;;;;;5034891;28;20701;-70
2022/12/21 03:41:53;;;;;;;44.55;26.10;;;;;;;;;;5034905;28;20026;-70
2022/12/21 03:44:20;;;;;;;44.47;26.33;;;;;;;;;;5034957;28;20029;-70
2022/12/21 03:46:55;;;;;;;45.92;26.35;;;;;;;;;;5034934;28;20036;-70
2022/12/21 03:49:26;;;;;;;46.15;26.52;;;;;;;;;;5034897;28;20064;-70
2022/12/21 03:52:02;;;;;;;44.15;26.80;;;;;;;;;;5034569;28;20381;-70
2022/12/21 03:54:45;;;;;;;47.28;28.40;;;;;;;;;;5034502;28;20076;-70
2022/12/21 03:57:11;;;;;;;43.28;26.20;;;;;;;;;;5034470;28;20492;-70
2022/12/21 03:59:38;;;;;;;45.03;26.88;;;;;;;;;;5034713;28;20104;-70
2022/12/21 04:02:16;;;;;;;79.55;41.22;;;;;;;;;;5034751;28;20025;-70
2022/12/21 04:04:41;;;;;;;101.70;52.45;;;;;;;;;;5034508;28;20040;-69
2022/12/21 04:07:08;;;;;;;58.08;32.55;;;;;;;;;;5034291;28;20116;-69
2022/12/21 04:09:34;;;;;;;44.25;24.65;;;;;;;;;;5034621;28;20017;-71
2022/12/21 04:14:43;;;;;;;53.33;26.90;;;;;;;;;;5034330;28;20049;-70
2022/12/21 04:17:10;;;;;;;48.25;25.90;;;;;;;;;;5033707;28;20084;-70
2022/12/21 04:28:07;;;;;;;45.58;26.88;;;;;;;;;;5054266;28;20115;-69
2022/12/21 04:30:37;;;;;;;44.22;26.10;;;;;;;;;;5054100;28;20036;-69
2022/12/21 04:33:03;;;;;;;42.93;25.03;;;;;;;;;;5053987;28;20495;-69
2022/12/21 04:35:28;;;;;;;43.80;25.48;;;;;;;;;;5054058;28;20061;-69
2022/12/21 04:37:53;;;;;;;42.88;24.80;;;;;;;;;;5054179;28;20029;-69
2022/12/21 04:40:19;;;;;;;40.00;24.42;;;;;;;;;;5054046;28;20079;-70
2022/12/21 04:42:44;;;;;;;38.40;23.95;;;;;;;;;;5054043;28;20043;-70
2022/12/21 04:45:09;;;;;;;39.53;23.20;;;;;;;;;;5053787;28;20094;-71
2022/12/21 04:47:35;;;;;;;38.33;23.73;;;;;;;;;;5052936;28;20037;-71
2022/12/21 04:50:00;;;;;;;38.55;23.80;;;;;;;;;;5053928;28;20104;-71
2022/12/21 04:52:25;;;;;;;52.90;28.65;;;;;;;;;;5053948;28;20461;-70
2022/12/21 04:54:51;;;;;;;48.33;26.30;;;;;;;;;;5053690;28;20064;-71
2022/12/21 04:57:17;;;;;;;39.90;23.88;;;;;;;;;;5053628;28;20107;-71
2022/12/21 04:59:44;;;;;;;41.80;23.98;;;;;;;;;;5053662;28;20040;-71
2022/12/21 05:02:10;;;;;;;34.35;22.30;;;;;;;;;;5053778;28;20064;-70
2022/12/21 05:04:35;;;;;;;36.17;22.42;;;;;;;;;;5053771;28;20057;-70
2022/12/21 05:07:00;;;;;;;36.88;22.17;;;;;;;;;;5053653;28;20033;-70
2022/12/21 05:09:26;;;;;;;34.15;21.77;;;;;;;;;;5053634;28;20057;-70
2022/12/21 05:11:52;;;;;;;34.58;22.63;;;;;;;;;;5053329;28;20021;-71
2022/12/21 05:14:18;;;;;;;33.97;21.70;;;;;;;;;;5053367;28;20126;-71
2022/12/21 05:16:43;;;;;;;34.67;22.10;;;;;;;;;;5053114;28;20044;-70
2022/12/21 05:19:08;;;;;;;33.90;22.60;;;;;;;;;;5053567;28;20048;-70
2022/12/21 05:21:33;;;;;;;33.30;21.73;;;;;;;;;;5053523;28;20380;-70
2022/12/21 05:24:05;;;;;;;36.88;23.17;;;;;;;;;;5053251;28;20029;-70
2022/12/21 05:26:30;;;;;;;35.83;22.52;;;;;;;;;;5035713;28;20536;-70
2022/12/21 05:28:55;;;;;;;42.25;25.42;;;;;;;;;;5053575;28;20060;-70
2022/12/21 05:31:21;;;;;;;45.28;26.38;;;;;;;;;;5052984;28;20040;-71
2022/12/21 05:33:46;;;;;;;41.78;24.67;;;;;;;;;;5053088;28;20469;-71
2022/12/21 05:36:13;;;;;;;37.95;23.45;;;;;;;;;;5053242;28;20021;-71
2022/12/21 05:38:39;;;;;;;41.75;24.35;;;;;;;;;;5053470;28;20024;-71
2022/12/21 05:41:04;;;;;;;44.65;25.85;;;;;;;;;;5053102;28;20021;-71
2022/12/21 05:43:30;;;;;;;46.30;25.67;;;;;;;;;;5052945;28;20037;-71
2022/12/21 05:46:02;;;;;;;52.22;27.33;;;;;;;;;;5052917;28;20044;-71
2022/12/21 05:48:28;;;;;;;52.78;28.20;;;;;;;;;;5052914;28;20128;-71
2022/12/21 05:50:53;;;;;;;51.38;27.33;;;;;;;;;;5052982;28;20116;-70
2022/12/21 05:53:18;;;;;;;52.92;29.10;;;;;;;;;;5053122;28;20029;-70
2022/12/21 05:55:47;;;;;;;56.15;30.10;;;;;;;;;;5052768;28;20380;-70
2022/12/21 05:58:12;;;;;;;54.38;30.98;;;;;;;;;;5052883;28;20025;-70
2022/12/21 06:00:39;;;;;;;52.85;28.42;;;;;;;;;;5056514;28;20037;-70
2022/12/21 06:03:05;;;;;;;53.92;28.52;;;;;;;;;;5056095;28;20086;-70
2022/12/21 06:05:33;;;;;;;48.97;25.65;;;;;;;;;;5055733;28;20029;-70
2022/12/21 06:07:58;;;;;;;41.05;24.00;;;;;;;;;;5056190;28;20033;-70
2022/12/21 06:10:23;;;;;;;39.78;21.55;;;;;;;;;;5056332;28;20074;-68
2022/12/21 06:12:49;;;;;;;51.53;31.80;;;;;;;;;;5056153;28;20032;-68
2022/12/21 06:15:14;;;;;;;49.47;31.85;;;;;;;;;;5056330;28;20031;-69
2022/12/21 06:17:39;;;;;;;35.03;22.98;;;;;;;;;;5038194;28;20368;-69
2022/12/21 06:20:05;;;;;;;34.40;21.17;;;;;;;;;;5035137;28;20037;-67
2022/12/21 06:22:32;;;;;;;30.67;19.75;;;;;;;;;;5035841;28;20525;-68
2022/12/21 06:24:58;;;;;;;32.45;19.38;;;;;;;;;;5036303;28;20036;-67
2022/12/21 06:27:23;;;;;;;30.95;19.70;;;;;;;;;;5036571;28;20021;-68
2022/12/21 06:29:48;;;;;;;29.17;18.20;;;;;;;;;;5035134;28;20040;-67
2022/12/21 06:32:13;;;;;;;27.92;17.45;;;;;;;;;;5035345;28;20030;-69
2022/12/21 06:34:39;;;;;;;32.05;20.13;;;;;;;;;;5035476;28;20120;-69
2022/12/21 06:37:04;;;;;;;36.80;22.35;;;;;;;;;;5034341;28;20021;-69
2022/12/21 06:39:29;;;;;;;43.95;23.98;;;;;;;;;;5034276;28;20370;-69
2022/12/21 06:41:55;;;;;;;47.17;26.73;;;;;;;;;;5034357;28;20110;-69
2022/12/21 06:44:20;;;;;;;44.70;23.95;;;;;;;;;;5033818;28;20448;-69
2022/12/21 06:46:46;;;;;;;38.67;20.75;;;;;;;;;;5033095;28;20045;-69
2022/12/21 06:49:13;;;;;;;37.63;20.48;;;;;;;;;;5033126;28;20129;-69
2022/12/21 06:51:38;;;;;;;34.40;19.70;;;;;;;;;;5033254;28;20496;-69
2022/12/21 06:54:03;;;;;;;34.40;20.33;;;;;;;;;;5033420;28;20067;-69
2022/12/21 06:56:29;;;;;;;31.45;18.77;;;;;;;;;;5033361;28;20029;-69
2022/12/21 06:58:55;;;;;;;34.67;19.85;;;;;;;;;;5034017;28;20029;-69
2022/12/21 07:01:21;;;;;;;30.23;18.92;;;;;;;;;;5034246;28;20029;-69
2022/12/21 07:03:47;;;;;;;31.85;19.45;;;;;;;;;;5034255;28;20045;-69
2022/12/21 07:06:13;;;;;;;29.17;18.77;;;;;;;;;;5034135;28;20040;-69
2022/12/21 07:08:39;;;;;;;36.40;21.88;;;;;;;;;;5033956;28;20044;-69
2022/12/21 07:11:06;;;;;;;45.40;25.35;;;;;;;;;;5033241;28;20091;-69
2022/12/21 07:13:33;;;;;;;41.33;23.27;;;;;;;;;;5033693;28;20049;-69
2022/12/21 07:15:59;;;;;;;44.80;24.45;;;;;;;;;;5033980;28;20025;-69
2022/12/21 07:18:24;;;;;;;35.88;21.02;;;;;;;;;;5033878;28;20033;-69
2022/12/21 07:20:54;;;;;;;32.05;20.17;;;;;;;;;;5053566;28;20037;-69
2022/12/21 07:23:19;;;;;;;31.17;18.65;;;;;;;;;;5053464;28;20037;-69
2022/12/21 07:25:45;;;;;;;29.30;18.40;;;;;;;;;;5053703;28;20413;-69
2022/12/21 07:28:10;;;;;;;32.28;20.33;;;;;;;;;;5053475;28;20475;-69
2022/12/21 07:30:35;;;;;;;32.63;20.73;;;;;;;;;;5053606;28;20033;-69
2022/12/21 07:33:00;;;;;;;30.80;19.83;;;;;;;;;;5053508;28;20120;-69
2022/12/21 07:35:26;;;;;;;31.45;20.75;;;;;;;;;;5052940;28;20016;-69
2022/12/21 07:37:51;;;;;;;32.78;20.65;;;;;;;;;;5053111;28;20206;-69
2022/12/21 07:40:17;;;;;;;33.72;23.17;;;;;;;;;;5054498;28;20067;-70
2022/12/21 07:42:43;;;;;;;34.28;23.15;;;;;;;;;;5054275;28;20042;-69
2022/12/21 07:45:32;;;;;;;33.92;23.15;;;;;;;;;;5046488;28;20040;-69
2022/12/21 07:47:58;;;;;;;48.58;31.90;;;;;;;;;;5036971;28;20029;-69
2022/12/21 07:50:23;;;;;;;78.82;41.03;;;;;;;;;;5054912;28;20529;-69
2022/12/21 07:52:50;;;;;;;62.90;36.88;;;;;;;;;;5054560;28;20033;-69
2022/12/21 07:55:15;;;;;;;50.35;30.92;;;;;;;;;;5054467;28;20116;-69
2022/12/21 07:57:40;;;;;;;38.25;24.40;;;;;;;;;;5054700;28;20057;-69
2022/12/21 08:00:06;;;;;;;38.97;25.33;;;;;;;;;;5054131;28;20384;-69
2022/12/21 08:02:37;;;;;;;40.83;26.38;;;;;;;;;;5054047;28;20384;-69
2022/12/21 08:05:03;;;;;;;36.33;24.33;;;;;;;;;;5054010;28;20040;-69
2022/12/21 08:07:28;;;;;;;32.95;22.73;;;;;;;;;;5054021;28;20450;-69
2022/12/21 08:09:53;;;;;;;41.63;24.90;;;;;;;;;;5053994;28;20032;-69
2022/12/21 08:12:19;;;;;;;41.85;28.13;;;;;;;;;;5053795;28;20115;-69
2022/12/21 08:14:44;;;;;;;36.45;24.35;;;;;;;;;;5053861;28;20033;-69
2022/12/21 08:17:09;;;;;;;38.47;23.85;;;;;;;;;;5053844;28;20025;-69
2022/12/21 08:19:35;;;;;;;35.90;23.30;;;;;;;;;;5035808;28;20484;-69
2022/12/21 08:22:01;;;;;;;34.47;20.45;;;;;;;;;;5053566;28;20035;-69
2022/12/21 08:28:14;;;;;;;33.88;21.83;;;;;;;;;;5054036;28;20105;-69
2022/12/21 08:34:14;;;;;;;37.55;27.67;;;;;;;;;;5053666;28;20087;-69
2022/12/21 08:40:14;;;;;;;43.58;30.77;;;;;;;;;;5053839;28;20090;-69
2022/12/21 08:46:15;;;;;;;38.63;25.23;;;;;;;;;;5053549;28;20170;-69
2022/12/21 08:52:15;;;;;;;28.73;18.27;;;;;;;;;;5053756;28;20408;-69
2022/12/21 08:58:15;;;;;;;30.70;20.25;;;;;;;;;;5053700;28;20535;-69
2022/12/21 09:04:15;;;;;;;35.08;21.17;;;;;;;;;;5053666;28;20032;-68
2022/12/21 09:10:16;;;;;;;29.83;18.67;;;;;;;;;;5053581;28;20154;-69
2022/12/21 09:16:22;;;;;;;32.53;19.92;;;;;;;;;;5053518;28;20606;-69
2022/12/21 09:26:36;;;;;;;;;;;;;;;;;;5053932;28;20036;-69
2022/12/21 09:32:50;;;;;;;29.70;19.67;;;;;;;;;;5053242;28;20480;-69
2022/12/21 09:38:51;;;;;;;30.13;19.90;;;;;;;;;;5057150;28;20113;-69
2022/12/21 09:45:10;;;;;;;35.80;21.33;;;;;;;;;;5057024;28;20442;-69
2022/12/21 09:51:28;;;;;;;34.97;22.63;;;;;;;;;;5056666;28;20487;-69
2022/12/21 09:57:31;;;;;;;57.58;30.48;;;;;;;;;;5056803;28;20031;-69
2022/12/21 10:03:32;;;;;;;73.07;34.83;;;;;;;;;;5056653;28;20032;-69
2022/12/21 10:09:45;;;;;;;88.78;43.40;;;;;;;;;;5056556;28;20027;-71
2022/12/21 10:26:32;;;;;;;35.78;21.42;;;;;;;;;;4994949;28;20077;-70
2022/12/21 10:32:34;;;;;;;73.03;34.50;;;;;;;;;;4994689;28;20038;-71
2022/12/21 10:38:34;;;;;;;49.58;25.90;;;;;;;;;;4994750;28;20033;-71
2022/12/21 10:44:38;;;;;;;36.38;19.17;;;;;;;;;;4994309;28;20517;-71
2022/12/21 10:47:28;;;;;;;51.28;24.13;;;;;;;;;;4993793;28;20045;-70
2022/12/21 10:53:28;;;;;;;42.20;23.70;;;;;;;;;;5055601;28;20478;-70
2022/12/21 10:59:30;;;;;;;32.97;19.95;;;;;;;;;;5055386;28;20032;-71
2022/12/21 11:05:34;;;;;;;31.85;20.00;;;;;;;;;;5055514;28;20063;-71
2022/12/21 11:11:35;;;;;;;36.40;22.42;;;;;;;;;;5055454;28;20446;-71
2022/12/21 11:17:36;;;;;;;68.50;34.17;;;;;;;;;;5055278;28;20035;-71
2022/12/21 11:27:30;;;;;;;38.88;22.48;;;;;;;;;;5054860;28;20436;-70
2022/12/21 11:33:31;;;;;;;37.28;23.48;;;;;;;;;;5054820;28;20563;-71
2022/12/21 11:39:31;;;;;;;43.58;24.02;;;;;;;;;;5054851;28;20111;-71
2022/12/21 11:56:12;;;;;;;45.38;25.90;;;;;;;;;;4993187;28;20501;-71
2022/12/21 12:06:37;;;;;;;52.15;30.60;;;;;;;;;;4973793;28;20126;-71
2022/12/21 12:12:40;;;;;;;106.47;47.40;;;;;;;;;;4973520;28;20110;-71
2022/12/21 12:18:48;;;;;;;161.20;68.60;;;;;;;;;;4983363;28;20117;-71
2022/12/21 12:28:42;;;;;;;58.33;31.75;;;;;;;;;;5032091;28;20106;-71
2022/12/21 12:39:25;;;;;;;36.03;21.65;;;;;;;;;;5032438;28;20436;-71
2022/12/21 12:45:38;;;;;;;35.83;23.02;;;;;;;;;;5031898;28;20400;-71
2022/12/21 12:51:38;;;;;;;86.78;46.08;;;;;;;;;;5031808;28;20071;-71
2022/12/21 12:57:38;;;;;;;70.97;39.70;;;;;;;;;;5031487;28;20032;-71
2022/12/21 13:03:47;;;;;;;63.15;35.67;;;;;;;;;;5031484;28;20037;-72
2022/12/21 13:13:14;;;;;;;58.53;35.47;;;;;;;;;;5037617;28;20060;-72
2022/12/21 13:19:17;;;;;;;63.95;37.85;;;;;;;;;;5037606;28;20063;-71
2022/12/21 13:39:38;;;;;;;71.22;36.65;;;;;;;;;;4995849;28;20033;-72
2022/12/21 13:45:53;;;;;;;56.40;35.83;;;;;;;;;;4995618;28;20041;-72
2022/12/21 13:52:06;;;;;;;59.85;35.47;;;;;;;;;;4995631;28;20029;-72
2022/12/21 13:54:42;;;;;;;58.92;34.58;;;;;;;;;;4994445;28;20038;-72
2022/12/21 13:57:26;;;;;;;67.18;41.63;;;;;;;;;;4993755;28;20046;-71
2022/12/21 13:59:51;;;;;;;68.10;40.92;;;;;;;;;;4994226;28;20042;-71
2022/12/21 14:02:17;;;;;;;70.88;41.70;;;;;;;;;;5007215;28;20045;-71
2022/12/21 14:08:16;;;;;;;98.38;61.90;;;;;;;;;;5056638;28;20106;-72
2022/12/21 14:28:27;;;;;;;47.58;31.00;;;;;;;;;;4956323;29;20163;-72
2022/12/21 14:38:20;;;;;;;134.20;62.35;;;;;;;;;;5056075;28;20522;-72
2022/12/21 14:44:24;;;;;;;114.82;59.60;;;;;;;;;;5055958;28;20044;-72
2022/12/21 14:50:25;;;;;;;78.90;43.75;;;;;;;;;;5055866;28;20403;-72
2022/12/21 14:56:26;;;;;;;72.22;40.85;;;;;;;;;;5055750;28;20028;-72
2022/12/21 15:02:42;;;;;;;38.65;24.90;;;;;;;;;;5055651;28;20043;-71
2022/12/21 15:08:44;;;;;;;48.15;30.58;;;;;;;;;;5055474;28;20152;-71
2022/12/21 15:14:54;;;;;;;87.35;44.47;;;;;;;;;;5055066;28;20036;-71
2022/12/21 15:20:55;;;;;;;79.68;42.92;;;;;;;;;;5055270;28;20028;-71
2022/12/21 15:30:57;;;;;;;;;;;;;;;;;;5055054;28;20035;-71
2022/12/21 15:33:32;;;;;;;75.20;46.33;;;;;;;;;;5036324;28;20392;-71
2022/12/21 15:35:59;;;;;;;65.88;43.33;;;;;;;;;;5054690;28;20711;-71
2022/12/21 15:38:30;;;;;;;77.43;46.10;;;;;;;;;;5054703;28;20036;-72
2022/12/21 15:40:55;;;;;;;;;;;;;;;;;;5055717;28;20025;-72
2022/12/21 15:43:38;;;;;;;102.35;56.38;;;;;;;;;;5054524;28;19915;-72
2022/12/21 15:46:22;;;;;;;88.85;52.10;;;;;;;;;;5053461;28;20083;-72
2022/12/21 15:52:40;;;;;;;80.90;53.35;;;;;;;;;;5054637;28;20071;-72
2022/12/21 15:58:40;;;;;;;133.23;65.05;;;;;;;;;;5054557;28;20512;-71
2022/12/21 16:04:45;;;;;;;64.25;37.83;;;;;;;;;;5054197;28;20545;-72
2022/12/21 16:10:47;;;;;;;60.20;37.17;;;;;;;;;;5054389;28;20024;-71
2022/12/21 16:17:03;;;;;;;58.95;35.83;;;;;;;;;;5054245;28;20458;-71
2022/12/21 16:23:03;;;;;;;94.70;55.47;;;;;;;;;;5054172;28;20055;-71
2022/12/21 16:33:20;;;;;;;71.70;43.70;;;;;;;;;;5053735;28;20119;-71
2022/12/21 16:39:20;;;;;;;63.58;40.50;;;;;;;;;;5053894;28;20474;-71
2022/12/21 16:45:23;;;;;;;70.45;44.42;;;;;;;;;;5053476;28;20087;-71
2022/12/21 16:51:29;;;;;;;60.25;36.75;;;;;;;;;;5053775;28;20033;-71
2022/12/21 16:57:29;;;;;;;59.38;35.72;;;;;;;;;;5053707;28;20108;-71
2022/12/21 17:03:32;;;;;;;47.38;29.23;;;;;;;;;;5053095;28;20150;-71
2022/12/21 17:05:57;;;;;;;54.22;32.40;;;;;;;;;;5052093;28;20444;-71
2022/12/21 17:08:25;;;;;;;61.70;39.40;;;;;;;;;;5052968;28;20025;-71
2022/12/21 17:10:57;;;;;;;56.65;35.47;;;;;;;;;;5052983;28;20497;-71
2022/12/21 17:13:22;;;;;;;57.50;32.53;;;;;;;;;;5052257;28;20037;-71
2022/12/21 17:15:57;;;;;;;68.53;38.22;;;;;;;;;;5052818;28;20028;-71
2022/12/21 17:18:37;;;;;;;68.00;38.30;;;;;;;;;;5052310;28;20025;-71
2022/12/21 17:21:02;;;;;;;;;;;;;;;;;;5052829;28;20099;-71
2022/12/21 17:23:31;;;;;;;52.37;30.40;;;;;;;;;;5050558;28;20348;-71
2022/12/21 17:25:57;;;;;;;48.15;28.02;;;;;;;;;;5052249;28;20354;-71
2022/12/21 17:28:32;;;;;;;44.20;25.33;;;;;;;;;;5052017;28;20083;-71
2022/12/21 17:30:58;;;;;;;41.67;25.90;;;;;;;;;;5052329;28;20036;-71
2022/12/21 17:33:24;;;;;;;45.42;27.77;;;;;;;;;;5052635;28;20032;-71
2022/12/21 17:35:51;;;;;;;50.55;30.00;;;;;;;;;;5051859;28;20025;-71
2022/12/21 17:38:17;;;;;;;51.42;29.02;;;;;;;;;;5052330;28;20057;-71
2022/12/21 17:40:43;;;;;;;63.75;35.53;;;;;;;;;;5052188;28;20108;-71
2022/12/21 17:46:47;;;;;;;120.32;59.28;;;;;;;;;;5053230;28;20032;-71
2022/12/21 17:52:47;;;;;;;68.95;37.95;;;;;;;;;;5053111;28;20031;-71
2022/12/21 17:58:47;;;;;;;53.88;29.65;;;;;;;;;;5056854;28;20135;-71
2022/12/21 18:01:28;;;;;;;47.63;28.23;;;;;;;;;;5056484;28;20044;-72
2022/12/21 18:03:54;;;;;;;32.50;19.38;;;;;;;;;;5056025;28;20028;-70
2022/12/21 18:06:20;;;;;;;32.67;20.35;;;;;;;;;;5055756;28;20368;-70
2022/12/21 18:08:45;;;;;;;34.20;20.73;;;;;;;;;;5055290;28;20036;-71
2022/12/21 18:11:12;;;;;;;33.22;18.50;;;;;;;;;;5055717;28;20017;-71
2022/12/21 18:13:37;;;;;;;35.35;21.35;;;;;;;;;;5055812;28;20058;-71
2022/12/21 18:16:03;;;;;;;41.03;26.40;;;;;;;;;;5055745;28;20108;-71
2022/12/21 18:18:30;;;;;;;44.88;27.55;;;;;;;;;;5055828;28;20418;-71
2022/12/21 18:20:56;;;;;;;46.35;29.02;;;;;;;;;;5055449;28;20044;-70
2022/12/21 18:23:23;;;;;;;50.85;29.70;;;;;;;;;;5053531;28;20025;-72
2022/12/21 18:25:49;;;;;;;54.90;31.30;;;;;;;;;;5055487;28;20029;-72
2022/12/21 18:28:16;;;;;;;54.85;33.40;;;;;;;;;;5054883;28;20041;-72
2022/12/21 18:30:42;;;;;;;68.05;37.40;;;;;;;;;;5054982;28;20365;-72
2022/12/21 18:33:12;;;;;;;48.92;28.33;;;;;;;;;;5037645;28;20029;-72
2022/12/21 18:35:38;;;;;;;51.28;31.52;;;;;;;;;;5052560;28;20061;-72
2022/12/21 18:38:08;;;;;;;60.35;35.72;;;;;;;;;;5054799;28;20048;-72
2022/12/21 18:40:34;;;;;;;57.38;33.17;;;;;;;;;;5036860;28;20036;-72
2022/12/21 18:43:01;;;;;;;56.47;35.15;;;;;;;;;;5054144;28;20021;-72
2022/12/21 18:45:27;;;;;;;69.68;40.80;;;;;;;;;;5053455;28;20120;-72
2022/12/21 18:47:52;;;;;;;97.65;54.30;;;;;;;;;;5053555;28;20120;-72
2022/12/21 18:50:19;;;;;;;115.55;60.92;;;;;;;;;;5053999;28;20033;-72
2022/12/21 18:52:46;;;;;;;113.65;62.53;;;;;;;;;;5054449;28;20454;-72
2022/12/21 18:55:14;;;;;;;138.82;74.80;;;;;;;;;;5034672;28;20108;-72
2022/12/21 19:01:20;;;;;;;132.05;67.60;;;;;;;;;;5055411;28;20028;-72
2022/12/21 19:07:21;;;;;;;117.07;65.70;;;;;;;;;;5054534;28;20059;-72
2022/12/21 19:13:25;;;;;;;72.03;41.47;;;;;;;;;;5055127;28;20059;-72
2022/12/21 19:19:30;;;;;;;65.72;36.80;;;;;;;;;;5055344;28;20074;-72
2022/12/21 19:21:56;;;;;;;65.68;36.50;;;;;;;;;;5052118;28;20059;-72
2022/12/21 19:24:27;;;;;;;64.13;36.30;;;;;;;;;;5053237;28;20048;-72
2022/12/21 19:26:52;;;;;;;65.13;36.33;;;;;;;;;;5053744;28;20033;-72
2022/12/21 19:29:19;;;;;;;68.07;37.75;;;;;;;;;;5054161;28;20041;-72
2022/12/21 19:31:45;;;;;;;71.03;37.42;;;;;;;;;;5053632;28;20454;-72
2022/12/21 19:34:10;;;;;;;64.75;36.30;;;;;;;;;;5054148;28;20041;-72
2022/12/21 19:36:37;;;;;;;62.47;35.45;;;;;;;;;;5054190;28;20067;-72
2022/12/21 19:39:03;;;;;;;61.75;35.38;;;;;;;;;;5053856;28;20017;-72
2022/12/21 19:41:30;;;;;;;59.95;34.13;;;;;;;;;;5054350;28;20472;-72
2022/12/21 19:43:55;;;;;;;62.55;35.33;;;;;;;;;;5054766;28;20037;-72
2022/12/21 19:49:56;;;;;;;67.95;39.55;;;;;;;;;;5054778;28;20023;-72
2022/12/21 19:55:57;;;;;;;68.68;38.63;;;;;;;;;;5054385;28;20031;-72
2022/12/21 20:01:58;;;;;;;82.55;47.00;;;;;;;;;;5054576;28;20028;-72
2022/12/21 20:07:58;;;;;;;56.47;33.10;;;;;;;;;;5054417;28;20147;-72
2022/12/21 20:13:58;;;;;;;65.80;36.30;;;;;;;;;;5054165;28;20124;-72
2022/12/21 20:19:59;;;;;;;68.75;40.90;;;;;;;;;;5054235;28;20043;-72
2022/12/21 20:25:59;;;;;;;72.80;43.10;;;;;;;;;;5054155;28;20492;-72
2022/12/21 20:36:33;;;;;;;70.10;37.03;;;;;;;;;;5054019;28;20539;-72
2022/12/21 20:49:25;;;;;;;82.10;46.38;;;;;;;;;;5054014;28;20031;-72
2022/12/21 21:02:23;;;;;;;76.57;44.33;;;;;;;;;;4985878;28;20048;-72
2022/12/21 21:04:48;;;;;;;78.03;45.28;;;;;;;;;;5051696;28;20036;-72
2022/12/21 21:07:21;;;;;;;75.85;45.13;;;;;;;;;;5051036;28;20867;-72
2022/12/21 21:09:46;;;;;;;73.75;43.05;;;;;;;;;;5033031;28;20393;-73
2022/12/21 21:12:12;;;;;;;77.68;42.85;;;;;;;;;;5034712;28;20036;-73
2022/12/21 21:14:37;;;;;;;77.97;45.63;;;;;;;;;;5052111;28;20061;-73
2022/12/21 21:17:03;;;;;;;79.68;46.22;;;;;;;;;;5052167;28;20108;-68
2022/12/21 21:19:30;;;;;;;89.28;48.70;;;;;;;;;;5052583;28;20040;-67
2022/12/21 21:24:42;;;;;;;80.32;49.72;;;;;;;;;;5052694;28;20365;-70
2022/12/21 21:27:11;;;;;;;110.85;64.82;;;;;;;;;;5052396;28;20641;-73